sensor_id;sensor_type;location;lat;lon;timestamp;pressure;altitude;pressure_sealevel;temperature;humidity
32733;BME280;11867;51.198;11.966;2023-05-22T00:00:32;100419.03;;;18.81;84.72
32733;BME280;11867;51.198;11.966;2023-05-22T00:01:56;100415.16;;;18.82;84.51
32733;BME280;11867;51.198;11.966;2023-05-22T00:03:19;100411.78;;;18.67;85.17
32733;BME280;11867;51.198;11.966;2023-05-22T00:04:41;100416.50;;;18.67;84.90
32733;BME280;11867;51.198;11.966;2023-05-22T00:06:04;100418.25;;;18.71;84.78
32733;BME280;11867;51.198;11.966;2023-05-22T00:07:32;100415.94;;;18.44;86.41
32733;BME280;11867;51.198;11.966;2023-05-22T00:08:54;100420.03;;;18.46;86.70
32733;BME280;11867;51.198;11.966;2023-05-22T00:10:17;100412.22;;;18.48;86.05
32733;BME280;11867;51.198;11.966;2023-05-22T00:11:41;100414.03;;;18.44;86.18
32733;BME280;11867;51.198;11.966;2023-05-22T00:13:04;100416.09;;;18.47;86.05
32733;BME280;11867;51.198;11.966;2023-05-22T00:14:27;100417.53;;;18.53;85.89
32733;BME280;11867;51.198;11.966;2023-05-22T00:15:49;100409.28;;;18.15;87.94
32733;BME280;11867;51.198;11.966;2023-05-22T00:17:11;100414.59;;;18.20;87.12
32733;BME280;11867;51.198;11.966;2023-05-22T00:18:35;100406.56;;;17.98;88.30
32733;BME280;11867;51.198;11.966;2023-05-22T00:19:57;100411.72;;;18.08;88.37
32733;BME280;11867;51.198;11.966;2023-05-22T00:21:25;100405.22;;;18.12;88.01
32733;BME280;11867;51.198;11.966;2023-05-22T00:22:49;100410.47;;;17.97;88.79
32733;BME280;11867;51.198;11.966;2023-05-22T00:24:12;100406.06;;;17.95;89.02
32733;BME280;11867;51.198;11.966;2023-05-22T00:25:35;100406.91;;;17.79;89.38
32733;BME280;11867;51.198;11.966;2023-05-22T00:26:58;100409.19;;;17.15;92.73
32733;BME280;11867;51.198;11.966;2023-05-22T00:28:20;100406.84;;;16.65;96.58
32733;BME280;11867;51.198;11.966;2023-05-22T00:29:43;100409.06;;;16.54;98.21
32733;BME280;11867;51.198;11.966;2023-05-22T00:31:06;100404.75;;;16.80;97.04
32733;BME280;11867;51.198;11.966;2023-05-22T00:32:29;100398.75;;;16.78;96.19
32733;BME280;11867;51.198;11.966;2023-05-22T00:33:51;100398.13;;;16.23;99.87
32733;BME280;11867;51.198;11.966;2023-05-22T00:35:14;100399.22;;;16.22;100.00
32733;BME280;11867;51.198;11.966;2023-05-22T00:36:37;100400.59;;;16.33;99.69
32733;BME280;11867;51.198;11.966;2023-05-22T00:38:02;100400.75;;;15.74;100.00
32733;BME280;11867;51.198;11.966;2023-05-22T00:39:25;100395.44;;;15.56;100.00
32733;BME280;11867;51.198;11.966;2023-05-22T00:40:47;100400.38;;;15.67;100.00
32733;BME280;11867;51.198;11.966;2023-05-22T00:42:10;100390.69;;;15.47;100.00
32733;BME280;11867;51.198;11.966;2023-05-22T00:43:33;100394.09;;;15.44;100.00
32733;BME280;11867;51.198;11.966;2023-05-22T00:44:56;100398.34;;;15.50;100.00
32733;BME280;11867;51.198;11.966;2023-05-22T00:46:19;100392.84;;;15.50;100.00
32733;BME280;11867;51.198;11.966;2023-05-22T00:47:42;100391.75;;;15.38;100.00
32733;BME280;11867;51.198;11.966;2023-05-22T00:49:05;100386.94;;;15.43;100.00
32733;BME280;11867;51.198;11.966;2023-05-22T00:50:27;100391.00;;;15.46;100.00
32733;BME280;11867;51.198;11.966;2023-05-22T00:51:50;100385.50;;;15.46;100.00
32733;BME280;11867;51.198;11.966;2023-05-22T00:53:14;100384.69;;;15.45;100.00
32733;BME280;11867;51.198;11.966;2023-05-22T00:54:37;100392.44;;;15.43;100.00
32733;BME280;11867;51.198;11.966;2023-05-22T00:55:59;100381.00;;;15.50;100.00
32733;BME280;11867;51.198;11.966;2023-05-22T00:57:22;100389.09;;;15.46;100.00
32733;BME280;11867;51.198;11.966;2023-05-22T00:58:45;100385.94;;;15.39;100.00
32733;BME280;11867;51.198;11.966;2023-05-22T01:00:09;100384.09;;;15.48;100.00
32733;BME280;11867;51.198;11.966;2023-05-22T01:01:33;100389.00;;;15.38;100.00
32733;BME280;11867;51.198;11.966;2023-05-22T01:03:03;100392.84;;;15.50;100.00
32733;BME280;11867;51.198;11.966;2023-05-22T01:04:26;100387.44;;;15.68;100.00
32733;BME280;11867;51.198;11.966;2023-05-22T01:05:49;100390.19;;;15.68;100.00
32733;BME280;11867;51.198;11.966;2023-05-22T01:07:11;100388.41;;;15.41;100.00
32733;BME280;11867;51.198;11.966;2023-05-22T01:08:35;100384.19;;;15.21;100.00
32733;BME280;11867;51.198;11.966;2023-05-22T01:09:58;100390.44;;;15.35;100.00
32733;BME280;11867;51.198;11.966;2023-05-22T01:11:27;100385.09;;;15.75;100.00
32733;BME280;11867;51.198;11.966;2023-05-22T01:12:59;100383.19;;;15.62;100.00
32733;BME280;11867;51.198;11.966;2023-05-22T01:14:32;100381.94;;;15.23;100.00
32733;BME280;11867;51.198;11.966;2023-05-22T01:16:04;100383.97;;;14.95;100.00
32733;BME280;11867;51.198;11.966;2023-05-22T01:17:39;100384.50;;;14.83;100.00
32733;BME280;11867;51.198;11.966;2023-05-22T01:19:17;100386.00;;;15.25;100.00
32733;BME280;11867;51.198;11.966;2023-05-22T01:20:56;100392.13;;;15.45;100.00
32733;BME280;11867;51.198;11.966;2023-05-22T01:22:38;100386.41;;;14.96;100.00
32733;BME280;11867;51.198;11.966;2023-05-22T01:24:55;100396.34;;;14.56;100.00
32733;BME280;11867;51.198;11.966;2023-05-22T01:26:43;100393.06;;;14.53;100.00
32733;BME280;11867;51.198;11.966;2023-05-22T01:28:35;100386.47;;;14.68;100.00
32733;BME280;11867;51.198;11.966;2023-05-22T01:30:10;100388.13;;;14.92;100.00
32733;BME280;11867;51.198;11.966;2023-05-22T01:31:40;100391.53;;;14.61;100.00
32733;BME280;11867;51.198;11.966;2023-05-22T01:33:05;100386.03;;;14.33;100.00
32733;BME280;11867;51.198;11.966;2023-05-22T01:34:30;100392.84;;;14.36;100.00
32733;BME280;11867;51.198;11.966;2023-05-22T01:35:58;100379.84;;;14.69;100.00
32733;BME280;11867;51.198;11.966;2023-05-22T01:37:23;100393.72;;;15.01;100.00
32733;BME280;11867;51.198;11.966;2023-05-22T01:38:45;100394.97;;;15.17;100.00
32733;BME280;11867;51.198;11.966;2023-05-22T01:40:10;100386.84;;;15.26;100.00
32733;BME280;11867;51.198;11.966;2023-05-22T01:41:33;100394.75;;;15.27;100.00
32733;BME280;11867;51.198;11.966;2023-05-22T01:42:56;100389.47;;;15.17;100.00
32733;BME280;11867;51.198;11.966;2023-05-22T01:44:18;100401.91;;;15.14;100.00
32733;BME280;11867;51.198;11.966;2023-05-22T01:45:40;100402.69;;;15.29;100.00
32733;BME280;11867;51.198;11.966;2023-05-22T01:47:04;100403.44;;;15.66;100.00
32733;BME280;11867;51.198;11.966;2023-05-22T01:48:28;100398.06;;;15.38;100.00
32733;BME280;11867;51.198;11.966;2023-05-22T01:49:52;100408.13;;;15.65;100.00
32733;BME280;11867;51.198;11.966;2023-05-22T01:51:19;100404.63;;;15.96;99.47
32733;BME280;11867;51.198;11.966;2023-05-22T01:52:52;100409.94;;;15.92;97.91
32733;BME280;11867;51.198;11.966;2023-05-22T01:54:21;100407.19;;;15.70;100.00
32733;BME280;11867;51.198;11.966;2023-05-22T01:55:48;100417.00;;;15.85;99.08
32733;BME280;11867;51.198;11.966;2023-05-22T01:57:18;100410.41;;;15.86;99.60
32733;BME280;11867;51.198;11.966;2023-05-22T01:58:48;100412.66;;;15.25;100.00
32733;BME280;11867;51.198;11.966;2023-05-22T02:00:14;100400.91;;;15.10;100.00
32733;BME280;11867;51.198;11.966;2023-05-22T02:01:38;100411.06;;;15.24;100.00
32733;BME280;11867;51.198;11.966;2023-05-22T02:03:07;100411.22;;;15.27;100.00
32733;BME280;11867;51.198;11.966;2023-05-22T02:04:37;100406.25;;;14.79;100.00
32733;BME280;11867;51.198;11.966;2023-05-22T02:06:04;100410.56;;;14.58;100.00
32733;BME280;11867;51.198;11.966;2023-05-22T02:07:27;100406.44;;;14.55;100.00
32733;BME280;11867;51.198;11.966;2023-05-22T02:08:52;100403.66;;;14.60;100.00
32733;BME280;11867;51.198;11.966;2023-05-22T02:10:15;100402.84;;;14.60;100.00
32733;BME280;11867;51.198;11.966;2023-05-22T02:11:39;100404.25;;;14.43;100.00
32733;BME280;11867;51.198;11.966;2023-05-22T02:13:03;100404.84;;;14.54;100.00
32733;BME280;11867;51.198;11.966;2023-05-22T02:14:27;100401.81;;;14.56;100.00
32733;BME280;11867;51.198;11.966;2023-05-22T02:15:51;100401.81;;;14.56;100.00
32733;BME280;11867;51.198;11.966;2023-05-22T02:17:14;100397.94;;;14.57;100.00
32733;BME280;11867;51.198;11.966;2023-05-22T02:18:40;100400.13;;;14.96;100.00
32733;BME280;11867;51.198;11.966;2023-05-22T02:20:06;100404.72;;;14.87;100.00
32733;BME280;11867;51.198;11.966;2023-05-22T02:21:35;100399.47;;;14.63;100.00
32733;BME280;11867;51.198;11.966;2023-05-22T02:22:57;100404.97;;;14.63;100.00
32733;BME280;11867;51.198;11.966;2023-05-22T02:24:20;100401.69;;;14.88;100.00
32733;BME280;11867;51.198;11.966;2023-05-22T02:25:44;100402.09;;;14.82;100.00
32733;BME280;11867;51.198;11.966;2023-05-22T02:27:06;100395.47;;;14.55;100.00
32733;BME280;11867;51.198;11.966;2023-05-22T02:28:30;100399.44;;;14.49;100.00
32733;BME280;11867;51.198;11.966;2023-05-22T02:29:53;100387.56;;;14.81;100.00
32733;BME280;11867;51.198;11.966;2023-05-22T02:31:15;100392.44;;;14.70;100.00
32733;BME280;11867;51.198;11.966;2023-05-22T02:32:39;100389.72;;;14.43;100.00
32733;BME280;11867;51.198;11.966;2023-05-22T02:34:04;100389.97;;;14.55;100.00
32733;BME280;11867;51.198;11.966;2023-05-22T02:35:27;100396.34;;;14.56;100.00
32733;BME280;11867;51.198;11.966;2023-05-22T02:36:50;100388.78;;;14.33;100.00
32733;BME280;11867;51.198;11.966;2023-05-22T02:38:12;100392.84;;;14.08;100.00
32733;BME280;11867;51.198;11.966;2023-05-22T02:39:36;100398.47;;;13.84;100.00
32733;BME280;11867;51.198;11.966;2023-05-22T02:40:59;100392.75;;;13.67;100.00
32733;BME280;11867;51.198;11.966;2023-05-22T02:42:22;100393.09;;;13.93;100.00
32733;BME280;11867;51.198;11.966;2023-05-22T02:43:43;100385.97;;;13.78;100.00
32733;BME280;11867;51.198;11.966;2023-05-22T02:45:07;100382.66;;;13.81;100.00
32733;BME280;11867;51.198;11.966;2023-05-22T02:46:30;100392.47;;;13.82;100.00
32733;BME280;11867;51.198;11.966;2023-05-22T02:47:52;100387.50;;;13.84;100.00
32733;BME280;11867;51.198;11.966;2023-05-22T02:49:17;100388.47;;;14.21;100.00
32733;BME280;11867;51.198;11.966;2023-05-22T02:50:39;100378.53;;;14.25;100.00
32733;BME280;11867;51.198;11.966;2023-05-22T02:52:02;100382.72;;;14.64;100.00
32733;BME280;11867;51.198;11.966;2023-05-22T02:53:24;100385.03;;;14.71;100.00
32733;BME280;11867;51.198;11.966;2023-05-22T02:54:46;100379.31;;;14.81;100.00
32733;BME280;11867;51.198;11.966;2023-05-22T02:56:09;100380.47;;;14.39;100.00
32733;BME280;11867;51.198;11.966;2023-05-22T02:57:32;100381.47;;;14.15;100.00
32733;BME280;11867;51.198;11.966;2023-05-22T02:58:55;100382.47;;;14.19;100.00
32733;BME280;11867;51.198;11.966;2023-05-22T03:00:19;100376.22;;;14.32;100.00
32733;BME280;11867;51.198;11.966;2023-05-22T03:01:43;100380.69;;;14.56;100.00
32733;BME280;11867;51.198;11.966;2023-05-22T03:03:05;100379.00;;;14.55;100.00
32733;BME280;11867;51.198;11.966;2023-05-22T03:04:30;100381.63;;;13.91;100.00
32733;BME280;11867;51.198;11.966;2023-05-22T03:05:53;100386.91;;;14.01;100.00
32733;BME280;11867;51.198;11.966;2023-05-22T03:07:19;100383.19;;;14.11;100.00
32733;BME280;11867;51.198;11.966;2023-05-22T03:08:42;100384.88;;;13.79;100.00
32733;BME280;11867;51.198;11.966;2023-05-22T03:10:05;100379.28;;;13.70;100.00
32733;BME280;11867;51.198;11.966;2023-05-22T03:11:29;100382.03;;;13.51;100.00
32733;BME280;11867;51.198;11.966;2023-05-22T03:12:52;100375.97;;;13.55;100.00
32733;BME280;11867;51.198;11.966;2023-05-22T03:14:13;100372.72;;;13.52;100.00
32733;BME280;11867;51.198;11.966;2023-05-22T03:15:36;100374.09;;;13.69;100.00
32733;BME280;11867;51.198;11.966;2023-05-22T03:16:59;100379.75;;;13.59;100.00
32733;BME280;11867;51.198;11.966;2023-05-22T03:18:22;100372.88;;;13.42;100.00
32733;BME280;11867;51.198;11.966;2023-05-22T03:19:49;100378.31;;;13.61;100.00
32733;BME280;11867;51.198;11.966;2023-05-22T03:21:11;100375.88;;;13.60;100.00
32733;BME280;11867;51.198;11.966;2023-05-22T03:22:34;100381.19;;;13.70;100.00
32733;BME280;11867;51.198;11.966;2023-05-22T03:23:56;100376.53;;;13.70;100.00
32733;BME280;11867;51.198;11.966;2023-05-22T03:25:18;100368.81;;;13.72;100.00
32733;BME280;11867;51.198;11.966;2023-05-22T03:26:42;100379.22;;;14.03;100.00
32733;BME280;11867;51.198;11.966;2023-05-22T03:28:04;100375.22;;;13.82;100.00
32733;BME280;11867;51.198;11.966;2023-05-22T03:29:27;100378.53;;;13.65;100.00
32733;BME280;11867;51.198;11.966;2023-05-22T03:30:50;100373.63;;;13.48;100.00
32733;BME280;11867;51.198;11.966;2023-05-22T03:32:13;100371.06;;;13.38;100.00
32733;BME280;11867;51.198;11.966;2023-05-22T03:33:35;100377.13;;;13.35;100.00
32733;BME280;11867;51.198;11.966;2023-05-22T03:34:59;100369.25;;;13.28;100.00
32733;BME280;11867;51.198;11.966;2023-05-22T03:36:22;100375.91;;;13.22;100.00
32733;BME280;11867;51.198;11.966;2023-05-22T03:37:45;100370.16;;;13.04;100.00
32733;BME280;11867;51.198;11.966;2023-05-22T03:39:08;100375.56;;;13.09;100.00
32733;BME280;11867;51.198;11.966;2023-05-22T03:40:31;100375.13;;;13.02;100.00
32733;BME280;11867;51.198;11.966;2023-05-22T03:41:53;100378.00;;;13.11;100.00
32733;BME280;11867;51.198;11.966;2023-05-22T03:43:16;100371.25;;;13.03;100.00
32733;BME280;11867;51.198;11.966;2023-05-22T03:44:39;100370.38;;;13.08;100.00
32733;BME280;11867;51.198;11.966;2023-05-22T03:46:01;100372.31;;;13.07;100.00
32733;BME280;11867;51.198;11.966;2023-05-22T03:47:24;100363.72;;;13.33;100.00
32733;BME280;11867;51.198;11.966;2023-05-22T03:48:46;100371.97;;;13.47;100.00
32733;BME280;11867;51.198;11.966;2023-05-22T03:50:10;100372.63;;;13.58;100.00
32733;BME280;11867;51.198;11.966;2023-05-22T03:51:33;100371.06;;;13.51;100.00
32733;BME280;11867;51.198;11.966;2023-05-22T03:52:55;100367.94;;;13.44;100.00
32733;BME280;11867;51.198;11.966;2023-05-22T03:54:18;100374.19;;;13.78;100.00
32733;BME280;11867;51.198;11.966;2023-05-22T03:55:40;100374.94;;;13.83;100.00
32733;BME280;11867;51.198;11.966;2023-05-22T03:57:03;100368.09;;;13.67;100.00
32733;BME280;11867;51.198;11.966;2023-05-22T03:58:25;100371.66;;;13.67;100.00
32733;BME280;11867;51.198;11.966;2023-05-22T03:59:48;100375.06;;;13.59;100.00
32733;BME280;11867;51.198;11.966;2023-05-22T04:01:11;100363.84;;;13.23;100.00
32733;BME280;11867;51.198;11.966;2023-05-22T04:02:35;100365.94;;;13.31;100.00
32733;BME280;11867;51.198;11.966;2023-05-22T04:03:59;100371.63;;;13.16;100.00
32733;BME280;11867;51.198;11.966;2023-05-22T04:05:24;100361.50;;;13.35;100.00
32733;BME280;11867;51.198;11.966;2023-05-22T04:06:45;100353.78;;;13.37;100.00
32733;BME280;11867;51.198;11.966;2023-05-22T04:08:08;100356.34;;;13.47;100.00
32733;BME280;11867;51.198;11.966;2023-05-22T04:09:30;100353.09;;;13.45;100.00
32733;BME280;11867;51.198;11.966;2023-05-22T04:10:54;100355.56;;;13.28;100.00
32733;BME280;11867;51.198;11.966;2023-05-22T04:12:17;100357.88;;;13.40;100.00
32733;BME280;11867;51.198;11.966;2023-05-22T04:13:40;100358.22;;;13.33;100.00
32733;BME280;11867;51.198;11.966;2023-05-22T04:15:02;100359.19;;;13.42;100.00
32733;BME280;11867;51.198;11.966;2023-05-22T04:16:25;100358.16;;;13.38;100.00
32733;BME280;11867;51.198;11.966;2023-05-22T04:17:47;100348.53;;;13.73;100.00
32733;BME280;11867;51.198;11.966;2023-05-22T04:19:10;100358.59;;;13.92;100.00
32733;BME280;11867;51.198;11.966;2023-05-22T04:20:36;100355.88;;;14.33;100.00
32733;BME280;11867;51.198;11.966;2023-05-22T04:21:58;100356.69;;;14.34;100.00
32733;BME280;11867;51.198;11.966;2023-05-22T04:23:21;100360.13;;;14.53;100.00
32733;BME280;11867;51.198;11.966;2023-05-22T04:24:44;100358.31;;;14.63;100.00
32733;BME280;11867;51.198;11.966;2023-05-22T04:26:09;100357.81;;;14.19;100.00
32733;BME280;11867;51.198;11.966;2023-05-22T04:27:32;100358.91;;;14.32;100.00
32733;BME280;11867;51.198;11.966;2023-05-22T04:28:56;100360.13;;;14.67;100.00
32733;BME280;11867;51.198;11.966;2023-05-22T04:30:18;100354.47;;;15.00;100.00
32733;BME280;11867;51.198;11.966;2023-05-22T04:31:42;100370.19;;;15.08;100.00
32733;BME280;11867;51.198;11.966;2023-05-22T04:33:05;100362.91;;;14.90;100.00
32733;BME280;11867;51.198;11.966;2023-05-22T04:34:27;100369.94;;;15.19;100.00
32733;BME280;11867;51.198;11.966;2023-05-22T04:35:52;100364.97;;;15.21;100.00
32733;BME280;11867;51.198;11.966;2023-05-22T04:37:15;100365.91;;;15.16;100.00
32733;BME280;11867;51.198;11.966;2023-05-22T04:38:37;100366.59;;;15.44;100.00
32733;BME280;11867;51.198;11.966;2023-05-22T04:40:02;100366.91;;;15.43;99.94
32733;BME280;11867;51.198;11.966;2023-05-22T04:41:27;100366.50;;;15.13;100.00
32733;BME280;11867;51.198;11.966;2023-05-22T04:42:49;100363.38;;;14.69;100.00
32733;BME280;11867;51.198;11.966;2023-05-22T04:44:14;100366.50;;;14.49;100.00
32733;BME280;11867;51.198;11.966;2023-05-22T04:45:37;100363.78;;;14.49;100.00
32733;BME280;11867;51.198;11.966;2023-05-22T04:47:00;100364.09;;;14.61;100.00
32733;BME280;11867;51.198;11.966;2023-05-22T04:48:23;100369.28;;;14.63;100.00
32733;BME280;11867;51.198;11.966;2023-05-22T04:49:45;100362.19;;;14.98;100.00
32733;BME280;11867;51.198;11.966;2023-05-22T04:51:09;100375.34;;;15.24;100.00
32733;BME280;11867;51.198;11.966;2023-05-22T04:52:31;100364.47;;;15.64;100.00
32733;BME280;11867;51.198;11.966;2023-05-22T04:53:54;100366.25;;;15.91;100.00
32733;BME280;11867;51.198;11.966;2023-05-22T04:55:16;100361.50;;;16.14;99.42
32733;BME280;11867;51.198;11.966;2023-05-22T04:56:41;100366.09;;;16.27;98.30
32733;BME280;11867;51.198;11.966;2023-05-22T04:58:03;100366.00;;;16.50;96.33
32733;BME280;11867;51.198;11.966;2023-05-22T04:59:26;100363.47;;;16.71;95.42
32733;BME280;11867;51.198;11.966;2023-05-22T05:00:49;100362.38;;;16.89;94.24
32733;BME280;11867;51.198;11.966;2023-05-22T05:02:13;100358.34;;;17.04;93.25
32733;BME280;11867;51.198;11.966;2023-05-22T05:03:36;100364.16;;;16.85;94.70
32733;BME280;11867;51.198;11.966;2023-05-22T05:04:58;100366.59;;;17.04;94.52
32733;BME280;11867;51.198;11.966;2023-05-22T05:06:22;100355.56;;;17.22;93.55
32733;BME280;11867;51.198;11.966;2023-05-22T05:07:47;100357.16;;;17.40;92.44
32733;BME280;11867;51.198;11.966;2023-05-22T05:09:10;100361.03;;;17.57;91.27
32733;BME280;11867;51.198;11.966;2023-05-22T05:10:33;100369.50;;;17.51;90.80
32733;BME280;11867;51.198;11.966;2023-05-22T05:11:55;100365.78;;;17.39;91.82
32733;BME280;11867;51.198;11.966;2023-05-22T05:13:18;100365.75;;;17.30;92.03
32733;BME280;11867;51.198;11.966;2023-05-22T05:14:41;100360.88;;;17.44;91.62
32733;BME280;11867;51.198;11.966;2023-05-22T05:16:05;100363.16;;;17.42;91.47
32733;BME280;11867;51.198;11.966;2023-05-22T05:17:28;100361.50;;;17.59;90.40
32733;BME280;11867;51.198;11.966;2023-05-22T05:18:51;100357.47;;;17.56;90.46
32733;BME280;11867;51.198;11.966;2023-05-22T05:20:14;100356.00;;;17.67;90.90
32733;BME280;11867;51.198;11.966;2023-05-22T05:21:38;100357.53;;;18.03;88.59
32733;BME280;11867;51.198;11.966;2023-05-22T05:23:00;100354.88;;;18.15;88.41
32733;BME280;11867;51.198;11.966;2023-05-22T05:24:23;100361.16;;;18.33;87.40
32733;BME280;11867;51.198;11.966;2023-05-22T05:25:46;100360.25;;;18.12;87.83
32733;BME280;11867;51.198;11.966;2023-05-22T05:27:09;100357.56;;;18.33;87.44
32733;BME280;11867;51.198;11.966;2023-05-22T05:28:32;100361.09;;;18.42;86.71
32733;BME280;11867;51.198;11.966;2023-05-22T05:29:55;100357.66;;;18.75;85.21
32733;BME280;11867;51.198;11.966;2023-05-22T05:31:18;100360.56;;;18.79;85.10
32733;BME280;11867;51.198;11.966;2023-05-22T05:32:41;100362.19;;;18.80;84.82
32733;BME280;11867;51.198;11.966;2023-05-22T05:34:04;100361.88;;;18.81;84.79
32733;BME280;11867;51.198;11.966;2023-05-22T05:35:26;100364.88;;;18.38;86.56
32733;BME280;11867;51.198;11.966;2023-05-22T05:36:51;100370.06;;;18.60;85.89
32733;BME280;11867;51.198;11.966;2023-05-22T05:38:14;100368.84;;;18.79;84.68
32733;BME280;11867;51.198;11.966;2023-05-22T05:39:37;100368.34;;;18.76;85.06
32733;BME280;11867;51.198;11.966;2023-05-22T05:41:00;100365.09;;;18.83;84.78
32733;BME280;11867;51.198;11.966;2023-05-22T05:42:23;100364.97;;;18.80;85.21
32733;BME280;11867;51.198;11.966;2023-05-22T05:43:46;100364.69;;;18.64;85.67
32733;BME280;11867;51.198;11.966;2023-05-22T05:45:10;100359.91;;;18.82;84.85
32733;BME280;11867;51.198;11.966;2023-05-22T05:46:33;100367.19;;;18.86;85.27
32733;BME280;11867;51.198;11.966;2023-05-22T05:47:56;100370.16;;;19.02;84.55
32733;BME280;11867;51.198;11.966;2023-05-22T05:49:19;100368.50;;;19.22;83.74
32733;BME280;11867;51.198;11.966;2023-05-22T05:50:42;100369.81;;;19.25;84.14
32733;BME280;11867;51.198;11.966;2023-05-22T05:52:06;100367.72;;;19.22;83.62
32733;BME280;11867;51.198;11.966;2023-05-22T05:53:29;100369.13;;;18.86;84.88
32733;BME280;11867;51.198;11.966;2023-05-22T05:54:52;100373.88;;;19.06;84.78
32733;BME280;11867;51.198;11.966;2023-05-22T05:56:15;100371.31;;;19.34;82.84
32733;BME280;11867;51.198;11.966;2023-05-22T05:57:39;100367.00;;;19.46;82.97
32733;BME280;11867;51.198;11.966;2023-05-22T05:59:02;100377.66;;;19.56;82.26
32733;BME280;11867;51.198;11.966;2023-05-22T06:00:24;100375.56;;;19.53;81.80
32733;BME280;11867;51.198;11.966;2023-05-22T06:01:48;100374.28;;;19.50;82.49
32733;BME280;11867;51.198;11.966;2023-05-22T06:03:10;100379.72;;;19.26;83.55
32733;BME280;11867;51.198;11.966;2023-05-22T06:04:33;100381.06;;;19.20;84.54
32733;BME280;11867;51.198;11.966;2023-05-22T06:05:56;100376.84;;;19.34;83.78
32733;BME280;11867;51.198;11.966;2023-05-22T06:07:21;100373.56;;;19.41;83.14
32733;BME280;11867;51.198;11.966;2023-05-22T06:08:45;100372.22;;;19.47;84.14
32733;BME280;11867;51.198;11.966;2023-05-22T06:10:09;100375.81;;;19.60;83.73
32733;BME280;11867;51.198;11.966;2023-05-22T06:11:33;100378.69;;;19.51;83.60
32733;BME280;11867;51.198;11.966;2023-05-22T06:12:56;100378.63;;;19.39;84.05
32733;BME280;11867;51.198;11.966;2023-05-22T06:14:19;100371.00;;;19.36;84.70
32733;BME280;11867;51.198;11.966;2023-05-22T06:15:42;100372.81;;;19.65;82.92
32733;BME280;11867;51.198;11.966;2023-05-22T06:17:05;100367.81;;;19.46;84.29
32733;BME280;11867;51.198;11.966;2023-05-22T06:18:29;100372.06;;;19.44;84.09
32733;BME280;11867;51.198;11.966;2023-05-22T06:19:52;100377.78;;;19.60;82.82
32733;BME280;11867;51.198;11.966;2023-05-22T06:21:15;100367.53;;;19.60;83.21
32733;BME280;11867;51.198;11.966;2023-05-22T06:22:42;100370.16;;;19.90;82.45
32733;BME280;11867;51.198;11.966;2023-05-22T06:24:05;100372.97;;;19.69;82.30
32733;BME280;11867;51.198;11.966;2023-05-22T06:25:28;100374.28;;;19.50;83.96
32733;BME280;11867;51.198;11.966;2023-05-22T06:26:51;100366.78;;;19.51;84.46
32733;BME280;11867;51.198;11.966;2023-05-22T06:28:14;100367.06;;;19.91;82.47
32733;BME280;11867;51.198;11.966;2023-05-22T06:29:37;100359.91;;;20.15;81.84
32733;BME280;11867;51.198;11.966;2023-05-22T06:30:59;100362.22;;;20.01;81.62
32733;BME280;11867;51.198;11.966;2023-05-22T06:32:22;100363.09;;;19.80;83.31
32733;BME280;11867;51.198;11.966;2023-05-22T06:33:45;100364.97;;;20.01;82.24
32733;BME280;11867;51.198;11.966;2023-05-22T06:35:09;100365.19;;;19.83;83.12
32733;BME280;11867;51.198;11.966;2023-05-22T06:36:32;100364.16;;;19.88;83.22
32733;BME280;11867;51.198;11.966;2023-05-22T06:37:57;100359.00;;;20.11;82.20
32733;BME280;11867;51.198;11.966;2023-05-22T06:39:20;100361.31;;;20.21;82.76
32733;BME280;11867;51.198;11.966;2023-05-22T06:40:43;100361.09;;;20.14;82.51
32733;BME280;11867;51.198;11.966;2023-05-22T06:42:06;100360.63;;;20.36;81.73
32733;BME280;11867;51.198;11.966;2023-05-22T06:43:29;100363.41;;;20.49;81.06
32733;BME280;11867;51.198;11.966;2023-05-22T06:44:52;100366.63;;;20.26;81.59
32733;BME280;11867;51.198;11.966;2023-05-22T06:46:15;100363.63;;;20.19;82.02
32733;BME280;11867;51.198;11.966;2023-05-22T06:47:38;100357.16;;;20.52;80.98
32733;BME280;11867;51.198;11.966;2023-05-22T06:49:01;100354.28;;;20.36;80.92
32733;BME280;11867;51.198;11.966;2023-05-22T06:50:24;100362.13;;;20.34;80.86
32733;BME280;11867;51.198;11.966;2023-05-22T06:51:47;100357.97;;;20.40;81.13
32733;BME280;11867;51.198;11.966;2023-05-22T06:53:11;100359.69;;;20.57;80.63
32733;BME280;11867;51.198;11.966;2023-05-22T06:54:34;100366.03;;;20.58;80.59
32733;BME280;11867;51.198;11.966;2023-05-22T06:55:57;100359.03;;;20.60;80.14
32733;BME280;11867;51.198;11.966;2023-05-22T06:57:20;100362.47;;;20.45;79.54
32733;BME280;11867;51.198;11.966;2023-05-22T06:58:44;100363.41;;;20.36;80.73
32733;BME280;11867;51.198;11.966;2023-05-22T07:00:08;100360.03;;;20.55;81.10
32733;BME280;11867;51.198;11.966;2023-05-22T07:01:33;100362.44;;;20.94;79.51
32733;BME280;11867;51.198;11.966;2023-05-22T07:02:56;100350.78;;;21.16;78.59
32733;BME280;11867;51.198;11.966;2023-05-22T07:04:19;100357.75;;;21.51;77.29
32733;BME280;11867;51.198;11.966;2023-05-22T07:05:42;100363.94;;;21.60;77.23
32733;BME280;11867;51.198;11.966;2023-05-22T07:07:05;100352.03;;;21.60;76.09
32733;BME280;11867;51.198;11.966;2023-05-22T07:08:28;100357.94;;;21.58;76.99
32733;BME280;11867;51.198;11.966;2023-05-22T07:09:51;100358.50;;;21.80;76.88
32733;BME280;11867;51.198;11.966;2023-05-22T07:11:14;100358.41;;;21.76;76.26